Aviation Digital Data Service (ADDS)

Output produced by METARs form (0722 UTC 24 April 2014)
found at http://aviationweather.gov/adds/metars/
 
KBPT 240520Z 2406/2506 17005KT P6SM FEW015 
     FM240800 17006KT P6SM BKN015 BKN250 
     FM241500 17010KT P6SM BKN025 BKN250 
     FM241800 18014G20KT P6SM SCT035 BKN250 
     FM250000 20008KT P6SM BKN020